createdAt,value
2022-09-16T00:01:36.368Z,12.53
2022-09-16T00:04:40.884Z,12.41
2022-09-16T00:07:46.001Z,12.36
2022-09-16T00:10:49.371Z,12.24
2022-09-16T00:13:52.722Z,12.37
2022-09-16T00:16:55.800Z,12.30
2022-09-16T00:19:59.411Z,12.25
2022-09-16T00:23:04.054Z,12.13
2022-09-16T00:26:07.596Z,12.33
2022-09-16T00:29:11.181Z,12.08
2022-09-16T00:32:14.546Z,12.10
2022-09-16T00:35:17.889Z,12.02
2022-09-16T00:38:22.472Z,12.02
2022-09-16T00:41:31.047Z,12.16
2022-09-16T00:44:56.581Z,12.08
2022-09-16T00:48:02.512Z,12.14
2022-09-16T00:51:10.421Z,11.99
2022-09-16T00:54:16.893Z,11.92
2022-09-16T00:57:19.981Z,12.06
2022-09-16T01:00:23.278Z,11.79
2022-09-16T01:03:28.273Z,12.09
2022-09-16T01:06:33.262Z,11.89
2022-09-16T01:09:39.720Z,11.86
2022-09-16T01:12:45.835Z,11.75
2022-09-16T01:15:59.773Z,11.97
2022-09-16T01:19:10.193Z,11.70
2022-09-16T01:22:30.076Z,11.62
2022-09-16T01:25:49.544Z,11.47
2022-09-16T01:29:13.503Z,11.55
2022-09-16T01:32:27.253Z,11.38
2022-09-16T01:35:42.944Z,11.85
2022-09-16T01:39:13.631Z,11.75
2022-09-16T01:42:31.553Z,11.74
2022-09-16T01:45:41.900Z,11.66
2022-09-16T01:48:53.914Z,11.65
2022-09-16T01:52:05.819Z,11.85
2022-09-16T01:55:13.756Z,11.59
2022-09-16T01:58:22.724Z,11.88
2022-09-16T02:01:32.662Z,11.65
2022-09-16T02:04:42.296Z,11.90
2022-09-16T02:07:51.069Z,11.78
2022-09-16T02:10:59.729Z,11.97
2022-09-16T02:14:08.259Z,11.51
2022-09-16T02:17:12.842Z,11.75
2022-09-16T02:20:22.347Z,11.91
2022-09-16T02:23:30.918Z,11.92
2022-09-16T02:26:38.055Z,11.88
2022-09-16T02:29:47.894Z,11.73
2022-09-16T02:33:05.602Z,11.86
2022-09-16T02:36:12.580Z,11.80
2022-09-16T02:39:21.248Z,11.91
2022-09-16T02:42:25.222Z,11.66
2022-09-16T02:45:41.269Z,11.99
2022-09-16T02:48:57.126Z,11.88
2022-09-16T02:52:08.206Z,11.64
2022-09-16T02:55:16.750Z,11.85
2022-09-16T02:58:20.234Z,11.73
2022-09-16T03:01:25.044Z,11.81
2022-09-16T03:04:29.670Z,11.74
2022-09-16T03:07:34.836Z,11.93
2022-09-16T03:10:44.393Z,11.76
2022-09-16T03:13:55.746Z,11.40
2022-09-16T03:17:07.704Z,11.75
2022-09-16T03:20:22.045Z,12.14
2022-09-16T03:23:42.112Z,11.96
2022-09-16T03:26:49.209Z,11.70
2022-09-16T03:29:58.548Z,11.58
2022-09-16T03:34:21.070Z,11.90
2022-09-16T03:37:32.060Z,11.93
2022-09-16T03:40:36.465Z,11.50
2022-09-16T03:43:39.601Z,11.85
2022-09-16T03:46:42.738Z,11.50
2022-09-16T03:49:47.265Z,11.70
2022-09-16T03:52:50.354Z,11.18
2022-09-16T03:55:53.399Z,11.47
2022-09-16T03:58:56.592Z,11.17
2022-09-16T04:01:59.753Z,11.40
2022-09-16T04:05:04.459Z,11.66
2022-09-16T04:08:07.685Z,11.57
2022-09-16T04:11:10.800Z,11.33
2022-09-16T04:14:14.340Z,11.21
2022-09-16T04:17:17.754Z,11.36
2022-09-16T04:20:22.733Z,11.36
2022-09-16T04:23:26.514Z,11.43
2022-09-16T04:26:29.582Z,11.21
2022-09-16T04:29:32.863Z,11.14
2022-09-16T04:32:36.170Z,11.32
2022-09-16T04:35:40.668Z,11.65
2022-09-16T04:38:46.054Z,11.62
2022-09-16T04:41:49.250Z,11.33
2022-09-16T04:44:52.297Z,11.31
2022-09-16T04:47:57.611Z,11.30
2022-09-16T04:51:05.842Z,11.43
2022-09-16T04:54:09.490Z,11.36
2022-09-16T04:57:12.642Z,11.30
2022-09-16T05:00:16.634Z,10.92
2022-09-16T05:03:19.803Z,11.23
2022-09-16T05:06:25.870Z,11.16
2022-09-16T05:09:29.070Z,11.32
2022-09-16T05:12:32.465Z,11.26
2022-09-16T05:15:35.738Z,11.34
2022-09-16T05:18:40.905Z,11.22
2022-09-16T05:21:45.284Z,11.43
2022-09-16T05:24:48.443Z,11.38
2022-09-16T05:27:51.876Z,11.35
2022-09-16T05:30:55.040Z,11.49
2022-09-16T05:33:59.537Z,11.35
2022-09-16T05:37:04.129Z,11.62
2022-09-16T05:40:09.306Z,11.65
2022-09-16T05:43:12.430Z,11.72
2022-09-16T05:46:19.868Z,11.49
2022-09-16T05:49:23.828Z,11.59
2022-09-16T05:52:29.297Z,11.68
2022-09-16T05:55:32.494Z,11.75
2022-09-16T05:58:36.803Z,11.73
2022-09-16T06:01:41.100Z,11.54
2022-09-16T06:04:44.441Z,11.59
2022-09-16T06:07:48.958Z,11.71
2022-09-16T06:10:52.056Z,11.73
2022-09-16T06:13:56.664Z,11.40
2022-09-16T06:16:59.881Z,11.73
2022-09-16T06:20:03.488Z,11.59
2022-09-16T06:23:07.998Z,11.70
2022-09-16T06:26:14.672Z,11.58
2022-09-16T06:29:18.601Z,11.51
2022-09-16T06:32:22.126Z,11.78
2022-09-16T06:35:25.279Z,11.74
2022-09-16T06:38:30.054Z,12.01
2022-09-16T06:41:34.484Z,11.78
2022-09-16T06:44:37.587Z,11.95
2022-09-16T06:47:40.946Z,11.64
2022-09-16T06:50:44.089Z,11.90
2022-09-16T06:53:48.658Z,11.78
2022-09-16T06:56:52.363Z,11.93
2022-09-16T06:59:55.484Z,11.74
2022-09-16T07:02:58.803Z,11.75
2022-09-16T07:06:03.135Z,11.96
2022-09-16T07:09:07.780Z,11.83
2022-09-16T07:12:10.974Z,11.90
2022-09-16T07:15:14.580Z,12.22
2022-09-16T07:18:17.710Z,11.96
2022-09-16T07:21:24.777Z,11.93
2022-09-16T07:24:29.307Z,11.85
2022-09-16T07:27:32.503Z,12.00
2022-09-16T07:30:35.680Z,12.12
2022-09-16T07:33:40.536Z,12.14
2022-09-16T07:36:45.823Z,12.35
2022-09-16T07:39:50.547Z,12.05
2022-09-16T07:42:53.998Z,12.29
2022-09-16T07:45:59.738Z,12.35
2022-09-16T07:49:06.517Z,12.26
2022-09-16T07:52:09.761Z,12.57
2022-09-16T07:55:16.990Z,12.45
2022-09-16T07:58:20.099Z,12.46
2022-09-16T08:01:23.623Z,12.54
2022-09-16T08:04:26.802Z,12.51
2022-09-16T08:07:30.128Z,12.52
2022-09-16T08:10:34.824Z,12.50
2022-09-16T08:13:39.121Z,12.53
2022-09-16T08:16:42.638Z,12.49
2022-09-16T08:19:45.831Z,12.58
2022-09-16T08:22:49.211Z,12.66
2022-09-16T08:25:59.458Z,12.69
2022-09-16T08:29:10.727Z,12.88
2022-09-16T08:32:14.086Z,12.61
2022-09-16T08:35:17.532Z,12.51
2022-09-16T08:38:20.660Z,12.78
2022-09-16T08:41:47.875Z,12.71
2022-09-16T08:44:57.065Z,13.05
2022-09-16T08:48:14.783Z,13.35
2022-09-16T08:51:20.413Z,12.74
2022-09-16T08:54:29.389Z,12.33
2022-09-16T08:57:41.031Z,13.00
2022-09-16T09:00:47.316Z,12.22
2022-09-16T09:03:50.737Z,12.74
2022-09-16T09:07:07.753Z,12.66
2022-09-16T09:10:19.497Z,12.76
2022-09-16T09:13:49.263Z,12.71
2022-09-16T09:17:02.731Z,12.61
2022-09-16T09:20:17.291Z,12.87
2022-09-16T09:23:35.058Z,12.78
2022-09-16T09:26:46.545Z,12.97
2022-09-16T09:34:34.949Z,12.89
2022-09-16T09:37:57.797Z,12.95
2022-09-16T09:41:07.784Z,12.81
2022-09-16T09:44:30.845Z,12.86
2022-09-16T09:47:37.865Z,13.18
2022-09-16T09:50:45.251Z,13.02
2022-09-16T09:53:53.115Z,12.54
2022-09-16T09:56:59.398Z,13.01
2022-09-16T10:00:09.133Z,12.97
2022-09-16T10:03:19.806Z,13.19
2022-09-16T10:06:29.178Z,13.23
2022-09-16T10:09:34.135Z,13.38
2022-09-16T10:12:37.492Z,13.29
2022-09-16T10:15:41.261Z,13.47
2022-09-16T10:18:45.872Z,13.39
2022-09-16T10:21:53.417Z,13.72
2022-09-16T10:24:59.150Z,13.44
2022-09-16T10:28:06.844Z,13.19
2022-09-16T10:31:12.289Z,13.28
2022-09-16T10:34:22.040Z,13.43
2022-09-16T10:37:27.814Z,13.50
2022-09-16T10:40:32.336Z,13.59
2022-09-16T10:43:37.862Z,13.57
2022-09-16T10:46:51.892Z,13.85
2022-09-16T10:49:57.658Z,13.91
2022-09-16T10:53:05.177Z,13.71
2022-09-16T10:56:20.331Z,13.60
2022-09-16T10:59:23.376Z,13.86
2022-09-16T11:02:57.034Z,13.65
2022-09-16T11:06:16.189Z,13.53
2022-09-16T11:09:27.131Z,13.28
2022-09-16T11:12:53.283Z,13.15
2022-09-16T11:16:12.809Z,13.57
2022-09-16T11:19:23.559Z,13.31
2022-09-16T11:22:35.298Z,13.34
2022-09-16T11:25:50.746Z,12.94
2022-09-16T11:29:12.342Z,13.20
2022-09-16T11:32:23.951Z,13.20
2022-09-16T11:35:48.195Z,13.12
2022-09-16T11:39:04.986Z,13.37
2022-09-16T11:42:18.230Z,13.65
2022-09-16T11:45:43.507Z,13.43
2022-09-16T11:49:01.733Z,13.45
2022-09-16T11:52:20.330Z,13.45
2022-09-16T11:55:37.926Z,13.40
2022-09-16T11:58:47.674Z,13.61
2022-09-16T12:01:55.128Z,13.73
2022-09-16T12:05:04.160Z,13.78
2022-09-16T12:08:14.098Z,13.99
2022-09-16T12:11:21.955Z,13.93
2022-09-16T12:14:31.402Z,14.26
2022-09-16T12:17:37.933Z,14.19
2022-09-16T12:20:47.663Z,14.46
2022-09-16T12:24:00.790Z,14.31
2022-09-16T12:27:36.441Z,13.99
2022-09-16T12:30:44.046Z,14.12
2022-09-16T12:33:53.550Z,14.30
2022-09-16T12:37:01.854Z,14.52
2022-09-16T12:40:07.889Z,14.49
2022-09-16T12:43:36.955Z,14.44
2022-09-16T12:47:03.948Z,14.70
2022-09-16T12:50:28.416Z,14.49
2022-09-16T12:54:09.459Z,14.27
2022-09-16T12:57:33.010Z,14.29
2022-09-16T13:00:42.612Z,14.23
2022-09-16T13:03:51.874Z,14.17
2022-09-16T13:06:58.297Z,14.11
2022-09-16T13:10:04.128Z,14.03
2022-09-16T13:13:09.211Z,14.12
2022-09-16T13:16:12.768Z,14.12
2022-09-16T13:19:31.833Z,14.13
2022-09-16T13:22:45.157Z,14.33
2022-09-16T13:25:51.808Z,14.51
2022-09-16T13:28:57.833Z,14.80
2022-09-16T13:32:01.215Z,14.59
2022-09-16T13:35:23.939Z,14.85
2022-09-16T13:38:39.648Z,15.03
2022-09-16T13:41:45.378Z,14.92
2022-09-16T13:44:48.873Z,15.24
2022-09-16T13:47:52.623Z,15.10
2022-09-16T13:51:00.296Z,15.22
2022-09-16T13:54:04.633Z,14.58
2022-09-16T13:57:43.124Z,14.36
2022-09-16T14:00:53.813Z,14.21
2022-09-16T14:04:08.713Z,14.20
2022-09-16T14:07:27.080Z,14.47
2022-09-16T14:10:34.981Z,14.29
2022-09-16T14:13:42.406Z,14.45
2022-09-16T14:16:47.956Z,14.41
2022-09-16T14:19:56.289Z,14.61
2022-09-16T14:23:06.126Z,14.65
2022-09-16T14:26:13.580Z,14.40
2022-09-16T14:29:16.690Z,14.22
2022-09-16T14:32:20.662Z,14.53
2022-09-16T14:35:27.716Z,14.31
2022-09-16T14:38:45.937Z,14.14
2022-09-16T14:41:53.099Z,14.08
2022-09-16T14:44:57.534Z,13.85
2022-09-16T14:48:04.075Z,13.91
2022-09-16T14:51:13.952Z,14.46
2022-09-16T14:54:20.066Z,14.61
2022-09-16T14:57:26.032Z,14.70
2022-09-16T15:00:31.848Z,14.94
2022-09-16T15:03:40.693Z,14.62
2022-09-16T15:06:49.179Z,14.40
2022-09-16T15:10:00.091Z,14.25
2022-09-16T15:13:06.580Z,14.30
2022-09-16T15:16:12.945Z,14.00
2022-09-16T15:19:21.333Z,14.02
2022-09-16T15:22:25.162Z,13.85
2022-09-16T15:25:34.483Z,13.97
2022-09-16T15:28:37.811Z,14.12
2022-09-16T15:34:24.740Z,14.18
2022-09-16T15:37:37.569Z,13.98
2022-09-16T15:40:40.967Z,13.89
2022-09-16T15:43:46.049Z,13.70
2022-09-16T15:46:49.554Z,13.59
2022-09-16T15:49:59.247Z,13.84
2022-09-16T15:53:05.047Z,13.99
2022-09-16T15:56:18.179Z,12.64
2022-09-16T15:59:28.444Z,13.87
2022-09-16T16:02:35.634Z,13.94
2022-09-16T16:05:51.720Z,13.96
2022-09-16T16:08:55.017Z,13.72
2022-09-16T16:11:59.264Z,13.57
2022-09-16T16:15:02.334Z,13.50
2022-09-16T16:18:10.561Z,13.47
2022-09-16T16:21:17.254Z,13.46
2022-09-16T16:24:20.634Z,13.41
2022-09-16T16:27:23.875Z,13.24
2022-09-16T16:30:27.436Z,13.02
2022-09-16T16:33:30.503Z,13.02
2022-09-16T16:36:34.974Z,12.97
2022-09-16T16:39:38.169Z,13.23
2022-09-16T16:42:43.436Z,13.02
2022-09-16T16:45:54.880Z,12.93
2022-09-16T16:48:58.036Z,13.01
2022-09-16T16:52:05.928Z,12.82
2022-09-16T16:55:11.331Z,12.66
2022-09-16T16:58:14.378Z,12.56
2022-09-16T17:01:19.553Z,12.55
2022-09-16T17:04:23.639Z,12.39
2022-09-16T17:07:29.033Z,12.50
2022-09-16T17:10:32.180Z,12.50
2022-09-16T17:13:35.395Z,12.37
2022-09-16T17:16:38.748Z,12.41
2022-09-16T17:19:41.959Z,12.23
2022-09-16T17:22:46.384Z,12.30
2022-09-16T17:25:50.671Z,12.30
2022-09-16T17:28:56.775Z,12.21
2022-09-16T17:32:02.545Z,12.20
2022-09-16T17:35:06.438Z,12.14
2022-09-16T17:38:11.752Z,11.99
2022-09-16T17:41:16.782Z,12.10
2022-09-16T17:44:23.354Z,11.90
2022-09-16T17:47:27.240Z,11.90
2022-09-16T17:50:30.636Z,11.65
2022-09-16T17:53:36.225Z,11.65
2022-09-16T17:56:39.878Z,11.50
2022-09-16T17:59:48.158Z,11.68
2022-09-16T18:02:51.661Z,11.54
2022-09-16T18:05:54.697Z,11.52
2022-09-16T18:09:00.875Z,11.29
2022-09-16T18:12:03.966Z,11.10
2022-09-16T18:15:08.296Z,11.19
2022-09-16T18:18:11.793Z,10.68
2022-09-16T18:21:18.184Z,10.64
2022-09-16T18:24:22.653Z,10.59
2022-09-16T18:27:26.310Z,10.40
2022-09-16T18:30:29.716Z,10.63
2022-09-16T18:33:33.092Z,10.25
2022-09-16T18:36:37.683Z,10.54
2022-09-16T18:39:42.351Z,10.37
2022-09-16T18:42:45.455Z,10.31
2022-09-16T18:45:48.603Z,10.12
2022-09-16T18:48:52.945Z,10.06
2022-09-16T18:51:56.349Z,10.06
2022-09-16T18:55:00.830Z,9.99
2022-09-16T18:58:03.848Z,10.13
2022-09-16T19:01:09.605Z,9.88
2022-09-16T19:04:13.528Z,9.77
2022-09-16T19:07:18.157Z,9.86
2022-09-16T19:10:22.595Z,9.52
2022-09-16T19:13:25.680Z,9.84
2022-09-16T19:16:28.754Z,10.02
2022-09-16T19:19:32.299Z,9.63
2022-09-16T19:22:37.474Z,9.62
2022-09-16T19:25:42.040Z,9.44
2022-09-16T19:28:45.434Z,9.63
2022-09-16T19:31:51.794Z,9.40
2022-09-16T19:34:55.288Z,9.75
2022-09-16T19:37:58.398Z,10.02
2022-09-16T19:41:03.565Z,9.90
2022-09-16T19:44:08.743Z,10.09
2022-09-16T19:47:11.920Z,9.86
2022-09-16T19:50:15.210Z,9.64
2022-09-16T19:53:18.295Z,9.38
2022-09-16T19:56:25.157Z,9.33
2022-09-16T19:59:28.305Z,9.56
2022-09-16T20:02:31.464Z,9.18
2022-09-16T20:05:34.675Z,9.14
2022-09-16T20:08:41.144Z,9.34
2022-09-16T20:11:47.077Z,8.91
2022-09-16T20:14:50.176Z,9.15
2022-09-16T20:17:53.384Z,9.57
2022-09-16T20:21:02.012Z,9.36
2022-09-16T20:24:06.950Z,9.64
2022-09-16T20:27:11.579Z,8.97
2022-09-16T20:30:15.032Z,8.90
2022-09-16T20:33:18.455Z,8.79
2022-09-16T20:36:23.366Z,8.51
2022-09-16T20:39:26.600Z,8.41
2022-09-16T20:42:31.430Z,9.09
2022-09-16T20:45:36.918Z,8.83
2022-09-16T20:48:40.688Z,8.89
2022-09-16T20:51:44.523Z,8.90
2022-09-16T20:54:47.588Z,8.32
2022-09-16T20:57:52.018Z,8.40
2022-09-16T21:00:55.171Z,8.29
2022-09-16T21:03:59.989Z,8.51
2022-09-16T21:07:03.110Z,8.93
2022-09-16T21:10:07.581Z,8.69
2022-09-16T21:13:12.079Z,9.17
2022-09-16T21:16:16.618Z,9.37
2022-09-16T21:19:20.153Z,9.23
2022-09-16T21:22:23.773Z,9.85
2022-09-16T21:25:26.926Z,9.24
2022-09-16T21:28:33.288Z,9.30
2022-09-16T21:34:15.329Z,9.03
2022-09-16T21:37:18.542Z,9.20
2022-09-16T21:40:22.794Z,8.79
2022-09-16T21:43:27.521Z,8.91
2022-09-16T21:46:32.303Z,8.54
2022-09-16T21:49:36.866Z,8.89
2022-09-16T21:52:39.930Z,8.98
2022-09-16T21:55:43.059Z,8.42
2022-09-16T21:58:47.812Z,8.59
2022-09-16T22:01:52.356Z,8.45
2022-09-16T22:04:56.810Z,8.64
2022-09-16T22:08:00.671Z,8.63
2022-09-16T22:11:06.883Z,8.53
2022-09-16T22:14:11.069Z,8.80
2022-09-16T22:17:14.226Z,8.82
2022-09-16T22:20:18.678Z,8.60
2022-09-16T22:23:22.017Z,8.13
2022-09-16T22:26:25.134Z,8.41
2022-09-16T22:29:28.429Z,8.59
2022-09-16T22:32:31.850Z,8.55
2022-09-16T22:35:37.073Z,8.28
2022-09-16T22:38:40.665Z,8.58
2022-09-16T22:41:43.725Z,8.53
2022-09-16T22:44:46.820Z,8.71
2022-09-16T22:47:50.029Z,8.61
2022-09-16T22:50:58.512Z,8.46
2022-09-16T22:54:01.765Z,8.73
2022-09-16T22:57:05.006Z,8.25
2022-09-16T23:00:09.885Z,8.55
2022-09-16T23:03:13.000Z,8.49
2022-09-16T23:06:17.606Z,8.22
2022-09-16T23:09:21.129Z,8.34
2022-09-16T23:12:24.171Z,8.21
2022-09-16T23:15:27.862Z,8.09
2022-09-16T23:18:32.223Z,8.26
2022-09-16T23:21:37.453Z,7.95
2022-09-16T23:24:40.537Z,8.32
2022-09-16T23:27:43.620Z,7.89
2022-09-16T23:30:47.090Z,7.87
2022-09-16T23:33:50.418Z,7.72
2022-09-16T23:36:54.909Z,7.96
2022-09-16T23:39:58.789Z,8.09
2022-09-16T23:43:01.893Z,7.90
2022-09-16T23:46:05.273Z,8.51
2022-09-16T23:49:08.398Z,7.99
2022-09-16T23:52:12.890Z,8.08
2022-09-16T23:55:16.248Z,8.07
2022-09-16T23:58:19.610Z,7.96
